sensor_id;sensor_type;location;lat;lon;timestamp;P1;durP1;ratioP1;P2;durP2;ratioP2
23060;SDS011;11698;47.690;9.132;2022-11-03T00:02:21;5.40;;;2.40;;
23060;SDS011;11698;47.690;9.132;2022-11-03T00:04:47;3.87;;;2.40;;
23060;SDS011;11698;47.690;9.132;2022-11-03T00:07:18;5.38;;;2.17;;
23060;SDS011;11698;47.690;9.132;2022-11-03T00:09:45;4.90;;;2.65;;
23060;SDS011;11698;47.690;9.132;2022-11-03T00:12:11;5.45;;;2.50;;
23060;SDS011;11698;47.690;9.132;2022-11-03T00:14:37;5.55;;;2.90;;
23060;SDS011;11698;47.690;9.132;2022-11-03T00:17:03;7.83;;;3.00;;
23060;SDS011;11698;47.690;9.132;2022-11-03T00:19:29;5.25;;;2.97;;
23060;SDS011;11698;47.690;9.132;2022-11-03T00:21:55;6.30;;;2.90;;
23060;SDS011;11698;47.690;9.132;2022-11-03T00:24:23;5.70;;;2.72;;
23060;SDS011;11698;47.690;9.132;2022-11-03T00:26:49;5.43;;;2.78;;
23060;SDS011;11698;47.690;9.132;2022-11-03T00:29:15;4.47;;;2.65;;
23060;SDS011;11698;47.690;9.132;2022-11-03T00:31:42;5.22;;;2.90;;
23060;SDS011;11698;47.690;9.132;2022-11-03T00:34:08;5.72;;;3.08;;
23060;SDS011;11698;47.690;9.132;2022-11-03T00:36:39;6.55;;;3.05;;
23060;SDS011;11698;47.690;9.132;2022-11-03T00:39:05;4.40;;;2.78;;
23060;SDS011;11698;47.690;9.132;2022-11-03T00:41:40;5.30;;;2.80;;
23060;SDS011;11698;47.690;9.132;2022-11-03T00:44:06;3.33;;;2.60;;
23060;SDS011;11698;47.690;9.132;2022-11-03T00:46:34;7.50;;;2.67;;
23060;SDS011;11698;47.690;9.132;2022-11-03T00:49:00;6.25;;;2.75;;
23060;SDS011;11698;47.690;9.132;2022-11-03T00:51:27;7.63;;;2.78;;
23060;SDS011;11698;47.690;9.132;2022-11-03T00:53:58;6.07;;;2.72;;
23060;SDS011;11698;47.690;9.132;2022-11-03T00:58:51;5.40;;;2.67;;
23060;SDS011;11698;47.690;9.132;2022-11-03T01:01:18;8.10;;;2.70;;
23060;SDS011;11698;47.690;9.132;2022-11-03T01:03:45;3.78;;;2.38;;
23060;SDS011;11698;47.690;9.132;2022-11-03T01:06:31;4.93;;;2.35;;
23060;SDS011;11698;47.690;9.132;2022-11-03T01:11:48;3.22;;;2.35;;
23060;SDS011;11698;47.690;9.132;2022-11-03T01:14:16;4.57;;;2.10;;
23060;SDS011;11698;47.690;9.132;2022-11-03T01:16:42;4.27;;;2.37;;
23060;SDS011;11698;47.690;9.132;2022-11-03T01:19:08;6.75;;;2.50;;
23060;SDS011;11698;47.690;9.132;2022-11-03T01:21:34;4.30;;;2.30;;
23060;SDS011;11698;47.690;9.132;2022-11-03T01:24:00;4.75;;;2.22;;
23060;SDS011;11698;47.690;9.132;2022-11-03T01:26:26;5.10;;;2.73;;
23060;SDS011;11698;47.690;9.132;2022-11-03T01:28:53;5.60;;;2.83;;
23060;SDS011;11698;47.690;9.132;2022-11-03T01:31:20;4.63;;;2.58;;
23060;SDS011;11698;47.690;9.132;2022-11-03T01:33:48;4.53;;;2.55;;
23060;SDS011;11698;47.690;9.132;2022-11-03T01:36:14;4.20;;;2.13;;
23060;SDS011;11698;47.690;9.132;2022-11-03T01:38:40;5.22;;;2.65;;
23060;SDS011;11698;47.690;9.132;2022-11-03T01:41:07;5.10;;;2.38;;
23060;SDS011;11698;47.690;9.132;2022-11-03T01:43:33;4.63;;;2.33;;
23060;SDS011;11698;47.690;9.132;2022-11-03T01:46:01;5.13;;;2.70;;
23060;SDS011;11698;47.690;9.132;2022-11-03T01:48:28;4.93;;;2.70;;
23060;SDS011;11698;47.690;9.132;2022-11-03T01:50:55;3.88;;;2.35;;
23060;SDS011;11698;47.690;9.132;2022-11-03T01:53:21;3.75;;;2.40;;
23060;SDS011;11698;47.690;9.132;2022-11-03T01:55:47;9.05;;;2.75;;
23060;SDS011;11698;47.690;9.132;2022-11-03T02:00:42;8.70;;;3.20;;
23060;SDS011;11698;47.690;9.132;2022-11-03T02:03:08;9.55;;;3.63;;
23060;SDS011;11698;47.690;9.132;2022-11-03T02:05:35;9.15;;;4.13;;
23060;SDS011;11698;47.690;9.132;2022-11-03T02:08:04;10.65;;;4.07;;
23060;SDS011;11698;47.690;9.132;2022-11-03T02:10:31;8.18;;;3.95;;
23060;SDS011;11698;47.690;9.132;2022-11-03T02:12:58;14.43;;;4.68;;
23060;SDS011;11698;47.690;9.132;2022-11-03T02:15:24;12.85;;;5.00;;
23060;SDS011;11698;47.690;9.132;2022-11-03T02:17:51;10.43;;;4.50;;
23060;SDS011;11698;47.690;9.132;2022-11-03T02:20:23;11.38;;;4.45;;
23060;SDS011;11698;47.690;9.132;2022-11-03T02:23:10;15.65;;;5.07;;
23060;SDS011;11698;47.690;9.132;2022-11-03T02:25:52;11.27;;;4.05;;
23060;SDS011;11698;47.690;9.132;2022-11-03T02:28:19;12.30;;;4.67;;
23060;SDS011;11698;47.690;9.132;2022-11-03T02:33:29;8.95;;;3.95;;
23060;SDS011;11698;47.690;9.132;2022-11-03T02:36:05;7.63;;;3.72;;
23060;SDS011;11698;47.690;9.132;2022-11-03T02:38:32;8.40;;;4.45;;
23060;SDS011;11698;47.690;9.132;2022-11-03T02:41:00;10.93;;;4.70;;
23060;SDS011;11698;47.690;9.132;2022-11-03T02:43:28;11.43;;;4.82;;
23060;SDS011;11698;47.690;9.132;2022-11-03T02:45:54;9.63;;;4.70;;
23060;SDS011;11698;47.690;9.132;2022-11-03T02:48:21;8.43;;;4.47;;
23060;SDS011;11698;47.690;9.132;2022-11-03T02:50:47;11.50;;;5.45;;
23060;SDS011;11698;47.690;9.132;2022-11-03T02:53:14;8.38;;;4.22;;
23060;SDS011;11698;47.690;9.132;2022-11-03T02:58:22;10.27;;;4.95;;
23060;SDS011;11698;47.690;9.132;2022-11-03T03:01:23;9.82;;;4.68;;
23060;SDS011;11698;47.690;9.132;2022-11-03T03:03:59;15.52;;;5.00;;
23060;SDS011;11698;47.690;9.132;2022-11-03T03:06:48;9.13;;;5.28;;
23060;SDS011;11698;47.690;9.132;2022-11-03T03:09:14;9.20;;;5.43;;
23060;SDS011;11698;47.690;9.132;2022-11-03T03:11:41;10.25;;;4.40;;
23060;SDS011;11698;47.690;9.132;2022-11-03T03:14:09;10.20;;;4.90;;
23060;SDS011;11698;47.690;9.132;2022-11-03T03:16:40;9.00;;;4.57;;
23060;SDS011;11698;47.690;9.132;2022-11-03T03:19:28;7.72;;;5.15;;
23060;SDS011;11698;47.690;9.132;2022-11-03T03:21:56;7.82;;;5.05;;
23060;SDS011;11698;47.690;9.132;2022-11-03T03:24:46;9.90;;;4.68;;
23060;SDS011;11698;47.690;9.132;2022-11-03T03:27:14;13.23;;;5.28;;
23060;SDS011;11698;47.690;9.132;2022-11-03T03:29:46;13.63;;;5.07;;
23060;SDS011;11698;47.690;9.132;2022-11-03T03:32:14;10.52;;;5.13;;
23060;SDS011;11698;47.690;9.132;2022-11-03T03:34:42;7.75;;;4.70;;
23060;SDS011;11698;47.690;9.132;2022-11-03T03:37:09;9.68;;;5.35;;
23060;SDS011;11698;47.690;9.132;2022-11-03T03:39:37;7.32;;;5.13;;
23060;SDS011;11698;47.690;9.132;2022-11-03T03:42:07;8.68;;;4.70;;
23060;SDS011;11698;47.690;9.132;2022-11-03T03:44:33;12.23;;;5.07;;
23060;SDS011;11698;47.690;9.132;2022-11-03T03:47:19;10.93;;;5.15;;
23060;SDS011;11698;47.690;9.132;2022-11-03T03:49:46;11.68;;;4.95;;
23060;SDS011;11698;47.690;9.132;2022-11-03T03:52:12;10.00;;;5.38;;
23060;SDS011;11698;47.690;9.132;2022-11-03T03:54:39;9.43;;;5.40;;
23060;SDS011;11698;47.690;9.132;2022-11-03T03:57:06;8.70;;;5.00;;
23060;SDS011;11698;47.690;9.132;2022-11-03T03:59:34;8.52;;;4.75;;
23060;SDS011;11698;47.690;9.132;2022-11-03T04:02:00;8.32;;;4.93;;
23060;SDS011;11698;47.690;9.132;2022-11-03T04:04:27;10.73;;;5.13;;
23060;SDS011;11698;47.690;9.132;2022-11-03T04:06:53;8.93;;;5.13;;
23060;SDS011;11698;47.690;9.132;2022-11-03T04:09:39;8.55;;;5.00;;
23060;SDS011;11698;47.690;9.132;2022-11-03T04:12:06;11.73;;;5.22;;
23060;SDS011;11698;47.690;9.132;2022-11-03T04:14:51;10.43;;;4.78;;
23060;SDS011;11698;47.690;9.132;2022-11-03T04:17:35;7.57;;;5.15;;
23060;SDS011;11698;47.690;9.132;2022-11-03T04:20:23;8.55;;;5.30;;
23060;SDS011;11698;47.690;9.132;2022-11-03T04:23:08;9.88;;;5.60;;
23060;SDS011;11698;47.690;9.132;2022-11-03T04:25:34;9.67;;;5.63;;
23060;SDS011;11698;47.690;9.132;2022-11-03T04:28:00;8.68;;;5.60;;
23060;SDS011;11698;47.690;9.132;2022-11-03T04:30:26;11.27;;;5.17;;
23060;SDS011;11698;47.690;9.132;2022-11-03T04:32:52;7.90;;;4.93;;
23060;SDS011;11698;47.690;9.132;2022-11-03T04:35:21;7.82;;;5.32;;
23060;SDS011;11698;47.690;9.132;2022-11-03T04:37:53;9.60;;;5.30;;
23060;SDS011;11698;47.690;9.132;2022-11-03T04:40:21;10.32;;;5.55;;
23060;SDS011;11698;47.690;9.132;2022-11-03T04:42:47;7.82;;;4.97;;
23060;SDS011;11698;47.690;9.132;2022-11-03T04:45:23;9.47;;;5.23;;
23060;SDS011;11698;47.690;9.132;2022-11-03T04:47:51;8.88;;;5.50;;
23060;SDS011;11698;47.690;9.132;2022-11-03T04:50:19;8.60;;;5.77;;
23060;SDS011;11698;47.690;9.132;2022-11-03T04:52:46;8.98;;;5.60;;
23060;SDS011;11698;47.690;9.132;2022-11-03T04:55:14;10.07;;;6.30;;
23060;SDS011;11698;47.690;9.132;2022-11-03T04:57:40;11.07;;;6.25;;
23060;SDS011;11698;47.690;9.132;2022-11-03T05:00:09;11.43;;;5.90;;
23060;SDS011;11698;47.690;9.132;2022-11-03T05:02:38;10.98;;;6.13;;
23060;SDS011;11698;47.690;9.132;2022-11-03T05:05:13;15.43;;;6.80;;
23060;SDS011;11698;47.690;9.132;2022-11-03T05:07:39;9.85;;;6.35;;
23060;SDS011;11698;47.690;9.132;2022-11-03T05:10:06;11.03;;;6.80;;
23060;SDS011;11698;47.690;9.132;2022-11-03T05:12:32;11.52;;;6.43;;
23060;SDS011;11698;47.690;9.132;2022-11-03T05:14:58;9.50;;;6.65;;
23060;SDS011;11698;47.690;9.132;2022-11-03T05:17:25;12.35;;;6.57;;
23060;SDS011;11698;47.690;9.132;2022-11-03T05:19:56;12.07;;;7.60;;
23060;SDS011;11698;47.690;9.132;2022-11-03T05:22:23;9.63;;;6.03;;
23060;SDS011;11698;47.690;9.132;2022-11-03T05:24:53;9.55;;;6.43;;
23060;SDS011;11698;47.690;9.132;2022-11-03T05:27:20;9.18;;;6.22;;
23060;SDS011;11698;47.690;9.132;2022-11-03T05:29:47;9.52;;;6.38;;
23060;SDS011;11698;47.690;9.132;2022-11-03T05:32:16;10.35;;;6.32;;
23060;SDS011;11698;47.690;9.132;2022-11-03T05:34:47;8.55;;;5.72;;
23060;SDS011;11698;47.690;9.132;2022-11-03T05:37:32;12.25;;;6.28;;
23060;SDS011;11698;47.690;9.132;2022-11-03T05:42:34;10.68;;;6.22;;
23060;SDS011;11698;47.690;9.132;2022-11-03T05:45:02;12.10;;;7.50;;
23060;SDS011;11698;47.690;9.132;2022-11-03T05:47:34;13.43;;;7.47;;
23060;SDS011;11698;47.690;9.132;2022-11-03T05:50:20;13.98;;;7.90;;
23060;SDS011;11698;47.690;9.132;2022-11-03T05:52:50;14.02;;;7.65;;
23060;SDS011;11698;47.690;9.132;2022-11-03T05:57:45;12.40;;;7.32;;
23060;SDS011;11698;47.690;9.132;2022-11-03T06:00:53;15.88;;;8.07;;
23060;SDS011;11698;47.690;9.132;2022-11-03T06:03:00;15.63;;;7.65;;
23060;SDS011;11698;47.690;9.132;2022-11-03T06:05:26;13.70;;;7.32;;
23060;SDS011;11698;47.690;9.132;2022-11-03T06:07:54;14.05;;;8.05;;
23060;SDS011;11698;47.690;9.132;2022-11-03T06:12:46;14.75;;;8.13;;
23060;SDS011;11698;47.690;9.132;2022-11-03T06:15:21;12.88;;;7.80;;
23060;SDS011;11698;47.690;9.132;2022-11-03T06:17:49;14.63;;;8.43;;
23060;SDS011;11698;47.690;9.132;2022-11-03T06:20:15;13.65;;;8.40;;
23060;SDS011;11698;47.690;9.132;2022-11-03T06:22:45;14.02;;;8.50;;
23060;SDS011;11698;47.690;9.132;2022-11-03T06:25:31;14.38;;;8.15;;
23060;SDS011;11698;47.690;9.132;2022-11-03T06:28:02;15.13;;;8.82;;
23060;SDS011;11698;47.690;9.132;2022-11-03T06:30:29;12.13;;;8.07;;
23060;SDS011;11698;47.690;9.132;2022-11-03T06:33:38;11.57;;;8.05;;
23060;SDS011;11698;47.690;9.132;2022-11-03T06:35:45;13.10;;;7.87;;
23060;SDS011;11698;47.690;9.132;2022-11-03T06:38:18;11.98;;;7.95;;
23060;SDS011;11698;47.690;9.132;2022-11-03T06:40:47;12.10;;;7.40;;
23060;SDS011;11698;47.690;9.132;2022-11-03T06:43:17;12.70;;;7.70;;
23060;SDS011;11698;47.690;9.132;2022-11-03T06:46:44;13.85;;;7.88;;
23060;SDS011;11698;47.690;9.132;2022-11-03T06:48:38;13.15;;;7.80;;
23060;SDS011;11698;47.690;9.132;2022-11-03T06:54:00;14.27;;;8.13;;
23060;SDS011;11698;47.690;9.132;2022-11-03T06:56:28;14.18;;;7.95;;
23060;SDS011;11698;47.690;9.132;2022-11-03T06:58:55;11.80;;;7.63;;
23060;SDS011;11698;47.690;9.132;2022-11-03T07:01:29;14.55;;;8.40;;
23060;SDS011;11698;47.690;9.132;2022-11-03T07:03:56;12.85;;;7.63;;
23060;SDS011;11698;47.690;9.132;2022-11-03T07:06:27;12.75;;;7.05;;
23060;SDS011;11698;47.690;9.132;2022-11-03T07:08:57;12.87;;;8.13;;
23060;SDS011;11698;47.690;9.132;2022-11-03T07:14:11;14.88;;;8.57;;
23060;SDS011;11698;47.690;9.132;2022-11-03T07:16:38;13.02;;;7.43;;
23060;SDS011;11698;47.690;9.132;2022-11-03T07:19:09;10.50;;;7.07;;
23060;SDS011;11698;47.690;9.132;2022-11-03T07:21:59;11.48;;;7.28;;
23060;SDS011;11698;47.690;9.132;2022-11-03T07:24:24;11.82;;;7.93;;
23060;SDS011;11698;47.690;9.132;2022-11-03T07:26:59;12.18;;;7.93;;
23060;SDS011;11698;47.690;9.132;2022-11-03T07:29:27;12.63;;;7.85;;
23060;SDS011;11698;47.690;9.132;2022-11-03T07:34:26;13.93;;;8.45;;
23060;SDS011;11698;47.690;9.132;2022-11-03T07:36:54;15.05;;;7.95;;
23060;SDS011;11698;47.690;9.132;2022-11-03T07:39:21;15.05;;;8.30;;
23060;SDS011;11698;47.690;9.132;2022-11-03T07:41:47;14.25;;;9.10;;
23060;SDS011;11698;47.690;9.132;2022-11-03T07:44:15;16.08;;;8.65;;
23060;SDS011;11698;47.690;9.132;2022-11-03T07:46:42;14.35;;;8.57;;
23060;SDS011;11698;47.690;9.132;2022-11-03T07:49:29;13.68;;;8.30;;
23060;SDS011;11698;47.690;9.132;2022-11-03T07:51:58;11.95;;;7.47;;
23060;SDS011;11698;47.690;9.132;2022-11-03T07:54:27;13.70;;;8.23;;
23060;SDS011;11698;47.690;9.132;2022-11-03T07:56:55;15.00;;;8.15;;
23060;SDS011;11698;47.690;9.132;2022-11-03T07:59:35;13.48;;;8.15;;
23060;SDS011;11698;47.690;9.132;2022-11-03T08:02:01;14.43;;;7.55;;
23060;SDS011;11698;47.690;9.132;2022-11-03T08:04:36;11.60;;;7.50;;
23060;SDS011;11698;47.690;9.132;2022-11-03T08:07:02;11.65;;;7.32;;
23060;SDS011;11698;47.690;9.132;2022-11-03T08:09:28;12.25;;;7.57;;
23060;SDS011;11698;47.690;9.132;2022-11-03T08:11:54;11.00;;;6.65;;
23060;SDS011;11698;47.690;9.132;2022-11-03T08:14:20;10.52;;;6.47;;
23060;SDS011;11698;47.690;9.132;2022-11-03T08:16:46;11.17;;;6.80;;
23060;SDS011;11698;47.690;9.132;2022-11-03T08:19:12;13.07;;;7.53;;
23060;SDS011;11698;47.690;9.132;2022-11-03T08:21:38;12.05;;;6.70;;
23060;SDS011;11698;47.690;9.132;2022-11-03T08:24:04;13.43;;;7.15;;
23060;SDS011;11698;47.690;9.132;2022-11-03T08:26:30;11.77;;;7.15;;
23060;SDS011;11698;47.690;9.132;2022-11-03T08:28:56;11.73;;;6.97;;
23060;SDS011;11698;47.690;9.132;2022-11-03T08:31:22;12.17;;;6.90;;
23060;SDS011;11698;47.690;9.132;2022-11-03T08:33:48;11.35;;;6.75;;
23060;SDS011;11698;47.690;9.132;2022-11-03T08:36:14;11.07;;;6.78;;
23060;SDS011;11698;47.690;9.132;2022-11-03T08:38:41;10.90;;;6.95;;
23060;SDS011;11698;47.690;9.132;2022-11-03T08:41:07;10.95;;;7.13;;
23060;SDS011;11698;47.690;9.132;2022-11-03T08:43:33;11.68;;;7.38;;
23060;SDS011;11698;47.690;9.132;2022-11-03T08:45:59;12.05;;;7.80;;
23060;SDS011;11698;47.690;9.132;2022-11-03T08:48:25;14.23;;;7.40;;
23060;SDS011;11698;47.690;9.132;2022-11-03T08:50:52;11.95;;;7.57;;
23060;SDS011;11698;47.690;9.132;2022-11-03T08:53:22;12.75;;;7.28;;
23060;SDS011;11698;47.690;9.132;2022-11-03T08:55:48;12.10;;;7.37;;
23060;SDS011;11698;47.690;9.132;2022-11-03T08:58:14;12.75;;;7.15;;
23060;SDS011;11698;47.690;9.132;2022-11-03T09:00:40;13.48;;;7.75;;
23060;SDS011;11698;47.690;9.132;2022-11-03T09:03:06;10.80;;;6.90;;
23060;SDS011;11698;47.690;9.132;2022-11-03T09:05:33;13.75;;;7.53;;
23060;SDS011;11698;47.690;9.132;2022-11-03T09:07:58;12.40;;;7.32;;
23060;SDS011;11698;47.690;9.132;2022-11-03T09:10:25;10.88;;;7.10;;
23060;SDS011;11698;47.690;9.132;2022-11-03T09:12:51;12.23;;;7.70;;
23060;SDS011;11698;47.690;9.132;2022-11-03T09:15:17;13.13;;;7.53;;
23060;SDS011;11698;47.690;9.132;2022-11-03T09:17:43;11.00;;;7.00;;
23060;SDS011;11698;47.690;9.132;2022-11-03T09:20:10;11.07;;;6.50;;
23060;SDS011;11698;47.690;9.132;2022-11-03T09:22:36;9.85;;;6.07;;
23060;SDS011;11698;47.690;9.132;2022-11-03T09:25:02;11.25;;;6.63;;
23060;SDS011;11698;47.690;9.132;2022-11-03T09:27:29;10.50;;;6.30;;
23060;SDS011;11698;47.690;9.132;2022-11-03T09:29:55;11.07;;;6.13;;
23060;SDS011;11698;47.690;9.132;2022-11-03T09:32:21;10.57;;;6.57;;
23060;SDS011;11698;47.690;9.132;2022-11-03T09:34:47;8.73;;;5.93;;
23060;SDS011;11698;47.690;9.132;2022-11-03T09:37:13;9.85;;;6.25;;
23060;SDS011;11698;47.690;9.132;2022-11-03T09:39:40;11.20;;;7.13;;
23060;SDS011;11698;47.690;9.132;2022-11-03T09:42:06;10.95;;;7.00;;
23060;SDS011;11698;47.690;9.132;2022-11-03T09:44:33;9.45;;;6.53;;
23060;SDS011;11698;47.690;9.132;2022-11-03T09:46:59;10.20;;;5.97;;
23060;SDS011;11698;47.690;9.132;2022-11-03T09:49:26;9.35;;;5.97;;
23060;SDS011;11698;47.690;9.132;2022-11-03T09:51:53;9.00;;;5.30;;
23060;SDS011;11698;47.690;9.132;2022-11-03T09:54:20;8.10;;;5.33;;
23060;SDS011;11698;47.690;9.132;2022-11-03T09:56:46;9.10;;;5.53;;
23060;SDS011;11698;47.690;9.132;2022-11-03T09:59:13;10.50;;;6.60;;
23060;SDS011;11698;47.690;9.132;2022-11-03T10:01:41;9.77;;;5.97;;
23060;SDS011;11698;47.690;9.132;2022-11-03T10:04:07;11.43;;;6.65;;
23060;SDS011;11698;47.690;9.132;2022-11-03T10:06:35;9.23;;;5.70;;
23060;SDS011;11698;47.690;9.132;2022-11-03T10:09:01;10.70;;;5.95;;
23060;SDS011;11698;47.690;9.132;2022-11-03T10:11:27;8.85;;;5.93;;
23060;SDS011;11698;47.690;9.132;2022-11-03T10:13:55;10.18;;;6.60;;
23060;SDS011;11698;47.690;9.132;2022-11-03T10:16:23;8.25;;;5.97;;
23060;SDS011;11698;47.690;9.132;2022-11-03T10:18:49;10.02;;;6.38;;
23060;SDS011;11698;47.690;9.132;2022-11-03T10:21:28;9.45;;;5.53;;
23060;SDS011;11698;47.690;9.132;2022-11-03T10:23:55;10.45;;;5.60;;
23060;SDS011;11698;47.690;9.132;2022-11-03T10:26:21;12.90;;;7.97;;
23060;SDS011;11698;47.690;9.132;2022-11-03T10:28:56;9.77;;;6.10;;
23060;SDS011;11698;47.690;9.132;2022-11-03T10:31:22;9.80;;;5.82;;
23060;SDS011;11698;47.690;9.132;2022-11-03T10:33:55;10.00;;;6.30;;
23060;SDS011;11698;47.690;9.132;2022-11-03T10:36:22;9.13;;;5.90;;
23060;SDS011;11698;47.690;9.132;2022-11-03T10:38:49;10.27;;;6.13;;
23060;SDS011;11698;47.690;9.132;2022-11-03T10:41:19;8.82;;;6.00;;
23060;SDS011;11698;47.690;9.132;2022-11-03T10:46:23;7.95;;;5.80;;
23060;SDS011;11698;47.690;9.132;2022-11-03T10:49:03;8.70;;;5.70;;
23060;SDS011;11698;47.690;9.132;2022-11-03T10:51:30;8.98;;;5.80;;
23060;SDS011;11698;47.690;9.132;2022-11-03T10:53:56;9.10;;;5.70;;
23060;SDS011;11698;47.690;9.132;2022-11-03T10:56:22;9.70;;;5.93;;
23060;SDS011;11698;47.690;9.132;2022-11-03T10:58:48;8.43;;;5.88;;
23060;SDS011;11698;47.690;9.132;2022-11-03T11:01:14;10.23;;;5.90;;
23060;SDS011;11698;47.690;9.132;2022-11-03T11:03:41;8.05;;;5.80;;
23060;SDS011;11698;47.690;9.132;2022-11-03T11:06:17;8.55;;;5.47;;
23060;SDS011;11698;47.690;9.132;2022-11-03T11:08:44;10.20;;;5.63;;
23060;SDS011;11698;47.690;9.132;2022-11-03T11:11:12;11.93;;;6.18;;
23060;SDS011;11698;47.690;9.132;2022-11-03T11:13:39;9.65;;;5.97;;
23060;SDS011;11698;47.690;9.132;2022-11-03T11:16:06;9.95;;;5.95;;
23060;SDS011;11698;47.690;9.132;2022-11-03T11:23:46;10.27;;;6.28;;
23060;SDS011;11698;47.690;9.132;2022-11-03T11:26:16;9.27;;;5.50;;
23060;SDS011;11698;47.690;9.132;2022-11-03T11:31:39;8.80;;;5.65;;
23060;SDS011;11698;47.690;9.132;2022-11-03T11:36:38;10.30;;;6.43;;
23060;SDS011;11698;47.690;9.132;2022-11-03T11:39:11;10.38;;;6.65;;
23060;SDS011;11698;47.690;9.132;2022-11-03T11:55:04;11.10;;;6.43;;
23060;SDS011;11698;47.690;9.132;2022-11-03T11:57:32;7.93;;;6.15;;
23060;SDS011;11698;47.690;9.132;2022-11-03T12:00:01;11.63;;;6.82;;
23060;SDS011;11698;47.690;9.132;2022-11-03T12:02:29;9.70;;;6.10;;
23060;SDS011;11698;47.690;9.132;2022-11-03T12:04:58;8.68;;;6.05;;
23060;SDS011;11698;47.690;9.132;2022-11-03T12:07:35;8.73;;;6.13;;
23060;SDS011;11698;47.690;9.132;2022-11-03T12:10:13;9.27;;;5.93;;
23060;SDS011;11698;47.690;9.132;2022-11-03T12:12:40;9.55;;;6.13;;
23060;SDS011;11698;47.690;9.132;2022-11-03T12:15:46;9.05;;;6.40;;
23060;SDS011;11698;47.690;9.132;2022-11-03T12:17:52;8.35;;;5.95;;
23060;SDS011;11698;47.690;9.132;2022-11-03T12:20:34;8.45;;;5.97;;
23060;SDS011;11698;47.690;9.132;2022-11-03T12:23:00;7.75;;;5.93;;
23060;SDS011;11698;47.690;9.132;2022-11-03T12:25:31;9.63;;;6.10;;
23060;SDS011;11698;47.690;9.132;2022-11-03T12:27:59;7.20;;;5.87;;
23060;SDS011;11698;47.690;9.132;2022-11-03T12:30:24;9.18;;;5.93;;
23060;SDS011;11698;47.690;9.132;2022-11-03T12:32:51;8.98;;;6.15;;
23060;SDS011;11698;47.690;9.132;2022-11-03T12:35:17;9.70;;;5.80;;
23060;SDS011;11698;47.690;9.132;2022-11-03T12:37:43;9.45;;;6.30;;
23060;SDS011;11698;47.690;9.132;2022-11-03T12:40:10;8.02;;;5.93;;
23060;SDS011;11698;47.690;9.132;2022-11-03T12:42:37;8.98;;;5.97;;
23060;SDS011;11698;47.690;9.132;2022-11-03T12:45:04;10.30;;;6.38;;
23060;SDS011;11698;47.690;9.132;2022-11-03T12:47:31;8.90;;;5.82;;
23060;SDS011;11698;47.690;9.132;2022-11-03T12:49:57;10.85;;;6.55;;
23060;SDS011;11698;47.690;9.132;2022-11-03T12:52:23;10.33;;;6.50;;
23060;SDS011;11698;47.690;9.132;2022-11-03T12:54:49;9.27;;;6.38;;
23060;SDS011;11698;47.690;9.132;2022-11-03T12:57:15;9.45;;;6.47;;
23060;SDS011;11698;47.690;9.132;2022-11-03T12:59:41;10.18;;;6.75;;
23060;SDS011;11698;47.690;9.132;2022-11-03T13:02:07;9.73;;;6.95;;
23060;SDS011;11698;47.690;9.132;2022-11-03T13:04:33;9.13;;;6.18;;
23060;SDS011;11698;47.690;9.132;2022-11-03T13:06:59;9.13;;;6.32;;
23060;SDS011;11698;47.690;9.132;2022-11-03T13:09:25;11.68;;;7.28;;
23060;SDS011;11698;47.690;9.132;2022-11-03T13:11:51;9.00;;;6.20;;
23060;SDS011;11698;47.690;9.132;2022-11-03T13:14:36;10.70;;;7.05;;
23060;SDS011;11698;47.690;9.132;2022-11-03T13:17:02;13.40;;;7.28;;
23060;SDS011;11698;47.690;9.132;2022-11-03T13:19:28;10.87;;;7.03;;
23060;SDS011;11698;47.690;9.132;2022-11-03T13:21:54;10.77;;;6.85;;
23060;SDS011;11698;47.690;9.132;2022-11-03T13:24:20;11.15;;;7.10;;
23060;SDS011;11698;47.690;9.132;2022-11-03T13:26:46;10.57;;;6.90;;
23060;SDS011;11698;47.690;9.132;2022-11-03T13:29:12;13.13;;;7.10;;
23060;SDS011;11698;47.690;9.132;2022-11-03T13:31:38;11.38;;;7.25;;
23060;SDS011;11698;47.690;9.132;2022-11-03T13:34:04;10.45;;;6.70;;
23060;SDS011;11698;47.690;9.132;2022-11-03T13:36:30;11.23;;;7.57;;
23060;SDS011;11698;47.690;9.132;2022-11-03T13:38:56;10.57;;;6.93;;
23060;SDS011;11698;47.690;9.132;2022-11-03T13:41:22;11.07;;;7.28;;
23060;SDS011;11698;47.690;9.132;2022-11-03T13:43:48;10.03;;;6.77;;
23060;SDS011;11698;47.690;9.132;2022-11-03T13:46:14;9.85;;;6.68;;
23060;SDS011;11698;47.690;9.132;2022-11-03T13:48:40;10.43;;;7.15;;
23060;SDS011;11698;47.690;9.132;2022-11-03T13:51:06;9.93;;;6.70;;
23060;SDS011;11698;47.690;9.132;2022-11-03T13:53:35;10.27;;;7.10;;
23060;SDS011;11698;47.690;9.132;2022-11-03T13:56:01;10.43;;;6.65;;
23060;SDS011;11698;47.690;9.132;2022-11-03T14:35:42;14.27;;;8.83;;
23060;SDS011;11698;47.690;9.132;2022-11-03T14:38:08;14.18;;;8.20;;
23060;SDS011;11698;47.690;9.132;2022-11-03T14:40:34;13.32;;;7.60;;
23060;SDS011;11698;47.690;9.132;2022-11-03T14:43:19;12.45;;;8.23;;
23060;SDS011;11698;47.690;9.132;2022-11-03T14:45:45;12.95;;;8.05;;
23060;SDS011;11698;47.690;9.132;2022-11-03T14:48:11;13.38;;;7.93;;
23060;SDS011;11698;47.690;9.132;2022-11-03T14:50:37;13.30;;;8.43;;
23060;SDS011;11698;47.690;9.132;2022-11-03T14:53:03;12.88;;;8.48;;
23060;SDS011;11698;47.690;9.132;2022-11-03T14:55:29;13.37;;;8.53;;
23060;SDS011;11698;47.690;9.132;2022-11-03T14:57:55;13.98;;;8.60;;
23060;SDS011;11698;47.690;9.132;2022-11-03T15:00:21;15.43;;;8.75;;
23060;SDS011;11698;47.690;9.132;2022-11-03T15:02:47;13.63;;;7.97;;
23060;SDS011;11698;47.690;9.132;2022-11-03T15:05:13;12.53;;;8.23;;
23060;SDS011;11698;47.690;9.132;2022-11-03T15:07:59;15.10;;;8.65;;
23060;SDS011;11698;47.690;9.132;2022-11-03T15:10:25;19.10;;;10.57;;
23060;SDS011;11698;47.690;9.132;2022-11-03T15:12:51;14.20;;;8.80;;
23060;SDS011;11698;47.690;9.132;2022-11-03T15:15:17;14.37;;;8.53;;
23060;SDS011;11698;47.690;9.132;2022-11-03T15:17:43;14.52;;;8.55;;
23060;SDS011;11698;47.690;9.132;2022-11-03T15:20:10;16.52;;;10.55;;
23060;SDS011;11698;47.690;9.132;2022-11-03T15:22:36;14.07;;;9.20;;
23060;SDS011;11698;47.690;9.132;2022-11-03T15:25:02;10.77;;;6.45;;
23060;SDS011;11698;47.690;9.132;2022-11-03T15:27:28;14.82;;;8.95;;
23060;SDS011;11698;47.690;9.132;2022-11-03T15:29:54;17.00;;;9.27;;
23060;SDS011;11698;47.690;9.132;2022-11-03T15:32:20;15.80;;;8.70;;
23060;SDS011;11698;47.690;9.132;2022-11-03T15:34:46;16.25;;;8.93;;
23060;SDS011;11698;47.690;9.132;2022-11-03T15:37:12;15.38;;;8.43;;
23060;SDS011;11698;47.690;9.132;2022-11-03T15:39:39;17.70;;;9.02;;
23060;SDS011;11698;47.690;9.132;2022-11-03T15:42:06;14.48;;;8.77;;
23060;SDS011;11698;47.690;9.132;2022-11-03T15:44:32;14.30;;;8.38;;
23060;SDS011;11698;47.690;9.132;2022-11-03T15:46:58;15.73;;;9.30;;
23060;SDS011;11698;47.690;9.132;2022-11-03T15:49:24;17.00;;;10.10;;
23060;SDS011;11698;47.690;9.132;2022-11-03T15:51:50;15.38;;;9.68;;
23060;SDS011;11698;47.690;9.132;2022-11-03T15:54:16;15.70;;;9.05;;
23060;SDS011;11698;47.690;9.132;2022-11-03T15:56:42;15.30;;;9.05;;
23060;SDS011;11698;47.690;9.132;2022-11-03T15:59:08;16.55;;;8.80;;
23060;SDS011;11698;47.690;9.132;2022-11-03T16:01:34;15.95;;;8.95;;
23060;SDS011;11698;47.690;9.132;2022-11-03T16:04:00;12.63;;;8.07;;
23060;SDS011;11698;47.690;9.132;2022-11-03T16:06:26;12.90;;;8.88;;
23060;SDS011;11698;47.690;9.132;2022-11-03T16:08:52;24.48;;;16.25;;
23060;SDS011;11698;47.690;9.132;2022-11-03T16:11:18;29.63;;;17.55;;
23060;SDS011;11698;47.690;9.132;2022-11-03T16:13:44;19.77;;;12.47;;
23060;SDS011;11698;47.690;9.132;2022-11-03T16:16:10;18.02;;;11.10;;
23060;SDS011;11698;47.690;9.132;2022-11-03T16:18:36;16.25;;;10.48;;
23060;SDS011;11698;47.690;9.132;2022-11-03T16:21:02;16.25;;;9.40;;
23060;SDS011;11698;47.690;9.132;2022-11-03T16:23:28;17.25;;;10.15;;